sensor_id;sensor_type;location;lat;lon;timestamp;temperature;humidity
3478;DHT22;37937;61.490;23.506;2022-10-30T00:01:56;4.20;99.90
3478;DHT22;37937;61.490;23.506;2022-10-30T00:04:21;4.20;99.90
3478;DHT22;37937;61.490;23.506;2022-10-30T00:06:47;4.20;99.90
3478;DHT22;37937;61.490;23.506;2022-10-30T00:09:13;4.20;99.90
3478;DHT22;37937;61.490;23.506;2022-10-30T00:11:39;4.20;99.90
3478;DHT22;37937;61.490;23.506;2022-10-30T00:14:06;4.20;99.90
3478;DHT22;37937;61.490;23.506;2022-10-30T00:16:31;4.20;99.90
3478;DHT22;37937;61.490;23.506;2022-10-30T00:18:57;4.20;99.90
3478;DHT22;37937;61.490;23.506;2022-10-30T00:21:23;4.10;99.90
3478;DHT22;37937;61.490;23.506;2022-10-30T00:23:49;4.10;99.90
3478;DHT22;37937;61.490;23.506;2022-10-30T00:26:16;4.10;99.90
3478;DHT22;37937;61.490;23.506;2022-10-30T00:28:41;4.10;99.90
3478;DHT22;37937;61.490;23.506;2022-10-30T00:31:07;4.10;99.90
3478;DHT22;37937;61.490;23.506;2022-10-30T00:33:33;4.10;99.90
3478;DHT22;37937;61.490;23.506;2022-10-30T00:35:59;4.10;99.90
3478;DHT22;37937;61.490;23.506;2022-10-30T00:38:24;4.10;99.90
3478;DHT22;37937;61.490;23.506;2022-10-30T00:40:50;4.10;99.90
3478;DHT22;37937;61.490;23.506;2022-10-30T00:43:33;4.10;99.90
3478;DHT22;37937;61.490;23.506;2022-10-30T00:46:00;4.10;99.90
3478;DHT22;37937;61.490;23.506;2022-10-30T00:48:27;4.10;99.90
3478;DHT22;37937;61.490;23.506;2022-10-30T00:50:52;4.00;99.90
3478;DHT22;37937;61.490;23.506;2022-10-30T00:53:19;4.10;99.90
3478;DHT22;37937;61.490;23.506;2022-10-30T00:58:15;4.10;99.90
3478;DHT22;37937;61.490;23.506;2022-10-30T01:00:42;4.10;99.90
3478;DHT22;37937;61.490;23.506;2022-10-30T01:03:10;4.10;99.90
3478;DHT22;37937;61.490;23.506;2022-10-30T01:05:36;4.10;99.90
3478;DHT22;37937;61.490;23.506;2022-10-30T01:08:02;4.00;99.90
3478;DHT22;37937;61.490;23.506;2022-10-30T01:10:28;4.00;99.90
3478;DHT22;37937;61.490;23.506;2022-10-30T01:12:54;3.90;99.90
3478;DHT22;37937;61.490;23.506;2022-10-30T01:15:26;3.90;99.90
3478;DHT22;37937;61.490;23.506;2022-10-30T01:18:00;3.90;99.90
3478;DHT22;37937;61.490;23.506;2022-10-30T01:23:23;3.90;99.90
3478;DHT22;37937;61.490;23.506;2022-10-30T01:26:02;3.90;99.90
3478;DHT22;37937;61.490;23.506;2022-10-30T01:33:44;3.90;99.90
3478;DHT22;37937;61.490;23.506;2022-10-30T01:36:21;3.90;99.90
3478;DHT22;37937;61.490;23.506;2022-10-30T01:38:51;3.90;99.90
3478;DHT22;37937;61.490;23.506;2022-10-30T01:41:17;3.80;99.90
3478;DHT22;37937;61.490;23.506;2022-10-30T01:43:43;3.80;99.90
3478;DHT22;37937;61.490;23.506;2022-10-30T01:54:00;3.80;99.90
3478;DHT22;37937;61.490;23.506;2022-10-30T01:59:14;3.70;99.90
3478;DHT22;37937;61.490;23.506;2022-10-30T02:01:41;3.70;99.90
3478;DHT22;37937;61.490;23.506;2022-10-30T02:04:08;3.70;99.90
3478;DHT22;37937;61.490;23.506;2022-10-30T02:06:34;3.70;99.90
3478;DHT22;37937;61.490;23.506;2022-10-30T02:09:00;3.70;99.90
3478;DHT22;37937;61.490;23.506;2022-10-30T02:11:26;3.70;99.90
3478;DHT22;37937;61.490;23.506;2022-10-30T02:13:52;3.60;99.90
3478;DHT22;37937;61.490;23.506;2022-10-30T02:16:19;3.60;99.90
3478;DHT22;37937;61.490;23.506;2022-10-30T02:18:45;3.70;99.90
3478;DHT22;37937;61.490;23.506;2022-10-30T02:21:11;3.70;99.90
3478;DHT22;37937;61.490;23.506;2022-10-30T02:23:37;3.60;99.90
3478;DHT22;37937;61.490;23.506;2022-10-30T02:26:03;3.70;99.90
3478;DHT22;37937;61.490;23.506;2022-10-30T02:28:28;3.60;99.90
3478;DHT22;37937;61.490;23.506;2022-10-30T02:30:54;3.60;99.90
3478;DHT22;37937;61.490;23.506;2022-10-30T02:33:20;3.60;99.90
3478;DHT22;37937;61.490;23.506;2022-10-30T02:35:45;3.50;99.90
3478;DHT22;37937;61.490;23.506;2022-10-30T02:38:11;3.60;99.90
3478;DHT22;37937;61.490;23.506;2022-10-30T02:40:37;3.50;99.90
3478;DHT22;37937;61.490;23.506;2022-10-30T02:43:02;3.60;99.90
3478;DHT22;37937;61.490;23.506;2022-10-30T02:45:28;3.60;99.90
3478;DHT22;37937;61.490;23.506;2022-10-30T02:47:54;3.50;99.90
3478;DHT22;37937;61.490;23.506;2022-10-30T02:50:20;3.50;99.90
3478;DHT22;37937;61.490;23.506;2022-10-30T02:52:45;3.60;99.90
3478;DHT22;37937;61.490;23.506;2022-10-30T02:55:11;3.60;99.90
3478;DHT22;37937;61.490;23.506;2022-10-30T02:57:37;3.50;99.90
3478;DHT22;37937;61.490;23.506;2022-10-30T03:00:03;3.50;99.90
3478;DHT22;37937;61.490;23.506;2022-10-30T03:02:29;3.50;99.90
3478;DHT22;37937;61.490;23.506;2022-10-30T03:04:54;3.50;99.90
3478;DHT22;37937;61.490;23.506;2022-10-30T03:07:20;3.50;99.90
3478;DHT22;37937;61.490;23.506;2022-10-30T03:09:46;3.50;99.90
3478;DHT22;37937;61.490;23.506;2022-10-30T03:12:12;3.50;99.90
3478;DHT22;37937;61.490;23.506;2022-10-30T03:14:38;3.50;99.90
3478;DHT22;37937;61.490;23.506;2022-10-30T03:17:04;3.50;99.90
3478;DHT22;37937;61.490;23.506;2022-10-30T03:19:29;3.50;99.90
3478;DHT22;37937;61.490;23.506;2022-10-30T03:21:55;3.40;99.90
3478;DHT22;37937;61.490;23.506;2022-10-30T03:24:21;3.40;99.90
3478;DHT22;37937;61.490;23.506;2022-10-30T03:26:47;3.50;99.90
3478;DHT22;37937;61.490;23.506;2022-10-30T03:29:12;3.50;99.90
3478;DHT22;37937;61.490;23.506;2022-10-30T03:31:38;3.50;99.90
3478;DHT22;37937;61.490;23.506;2022-10-30T03:34:04;3.60;99.90
3478;DHT22;37937;61.490;23.506;2022-10-30T03:36:29;3.50;99.90
3478;DHT22;37937;61.490;23.506;2022-10-30T03:38:55;3.50;99.90
3478;DHT22;37937;61.490;23.506;2022-10-30T03:41:21;3.50;99.90
3478;DHT22;37937;61.490;23.506;2022-10-30T03:43:46;3.50;99.90
3478;DHT22;37937;61.490;23.506;2022-10-30T03:46:12;3.50;99.90
3478;DHT22;37937;61.490;23.506;2022-10-30T03:48:38;3.40;99.90
3478;DHT22;37937;61.490;23.506;2022-10-30T03:51:03;3.50;99.90
3478;DHT22;37937;61.490;23.506;2022-10-30T03:53:29;3.50;99.90
3478;DHT22;37937;61.490;23.506;2022-10-30T03:55:59;3.40;99.90
3478;DHT22;37937;61.490;23.506;2022-10-30T03:58:26;3.50;99.90
3478;DHT22;37937;61.490;23.506;2022-10-30T04:00:52;3.40;99.90
3478;DHT22;37937;61.490;23.506;2022-10-30T04:03:17;3.40;99.90
3478;DHT22;37937;61.490;23.506;2022-10-30T04:05:43;3.40;99.90
3478;DHT22;37937;61.490;23.506;2022-10-30T04:08:12;3.40;99.90
3478;DHT22;37937;61.490;23.506;2022-10-30T04:10:42;3.40;99.90
3478;DHT22;37937;61.490;23.506;2022-10-30T04:13:08;3.30;99.90
3478;DHT22;37937;61.490;23.506;2022-10-30T04:15:35;3.30;99.90
3478;DHT22;37937;61.490;23.506;2022-10-30T04:18:00;3.30;99.90
3478;DHT22;37937;61.490;23.506;2022-10-30T04:20:26;3.20;99.90
3478;DHT22;37937;61.490;23.506;2022-10-30T04:22:59;3.30;99.90
3478;DHT22;37937;61.490;23.506;2022-10-30T04:25:25;3.30;99.90
3478;DHT22;37937;61.490;23.506;2022-10-30T04:27:51;3.20;99.90
3478;DHT22;37937;61.490;23.506;2022-10-30T04:30:18;3.20;99.90
3478;DHT22;37937;61.490;23.506;2022-10-30T04:32:49;3.20;99.90
3478;DHT22;37937;61.490;23.506;2022-10-30T04:35:15;3.20;99.90
3478;DHT22;37937;61.490;23.506;2022-10-30T04:37:41;3.20;99.90
3478;DHT22;37937;61.490;23.506;2022-10-30T04:40:07;3.20;99.90
3478;DHT22;37937;61.490;23.506;2022-10-30T04:42:33;3.20;99.90
3478;DHT22;37937;61.490;23.506;2022-10-30T04:44:59;3.20;99.90
3478;DHT22;37937;61.490;23.506;2022-10-30T04:47:27;3.20;99.90
3478;DHT22;37937;61.490;23.506;2022-10-30T04:49:52;3.20;99.90
3478;DHT22;37937;61.490;23.506;2022-10-30T04:52:18;3.20;99.90
3478;DHT22;37937;61.490;23.506;2022-10-30T04:54:44;3.20;99.90
3478;DHT22;37937;61.490;23.506;2022-10-30T04:57:09;3.20;99.90
3478;DHT22;37937;61.490;23.506;2022-10-30T04:59:35;3.20;99.90
3478;DHT22;37937;61.490;23.506;2022-10-30T05:02:01;3.20;99.90
3478;DHT22;37937;61.490;23.506;2022-10-30T05:04:26;3.20;99.90
3478;DHT22;37937;61.490;23.506;2022-10-30T05:06:52;3.10;99.90
3478;DHT22;37937;61.490;23.506;2022-10-30T05:09:18;3.20;99.90
3478;DHT22;37937;61.490;23.506;2022-10-30T05:11:43;3.20;99.90
3478;DHT22;37937;61.490;23.506;2022-10-30T05:14:09;3.20;99.90
3478;DHT22;37937;61.490;23.506;2022-10-30T05:16:35;3.20;99.90
3478;DHT22;37937;61.490;23.506;2022-10-30T05:19:00;3.20;99.90
3478;DHT22;37937;61.490;23.506;2022-10-30T05:21:26;3.20;99.90
3478;DHT22;37937;61.490;23.506;2022-10-30T05:23:52;3.30;99.90
3478;DHT22;37937;61.490;23.506;2022-10-30T05:26:18;3.30;99.90
3478;DHT22;37937;61.490;23.506;2022-10-30T05:28:44;3.30;99.90
3478;DHT22;37937;61.490;23.506;2022-10-30T05:31:09;3.30;99.90
3478;DHT22;37937;61.490;23.506;2022-10-30T05:33:35;3.30;99.90
3478;DHT22;37937;61.490;23.506;2022-10-30T05:36:00;3.20;99.90
3478;DHT22;37937;61.490;23.506;2022-10-30T05:38:26;3.30;99.90
3478;DHT22;37937;61.490;23.506;2022-10-30T05:40:52;3.30;99.90
3478;DHT22;37937;61.490;23.506;2022-10-30T05:43:18;3.30;99.90
3478;DHT22;37937;61.490;23.506;2022-10-30T05:45:43;3.30;99.90
3478;DHT22;37937;61.490;23.506;2022-10-30T05:48:09;3.30;99.90
3478;DHT22;37937;61.490;23.506;2022-10-30T05:50:35;3.40;99.90
3478;DHT22;37937;61.490;23.506;2022-10-30T05:53:01;3.40;99.90
3478;DHT22;37937;61.490;23.506;2022-10-30T05:55:27;3.40;99.90
3478;DHT22;37937;61.490;23.506;2022-10-30T05:58:00;3.30;99.90
3478;DHT22;37937;61.490;23.506;2022-10-30T06:00:26;3.40;99.90
3478;DHT22;37937;61.490;23.506;2022-10-30T06:02:57;3.30;99.90
3478;DHT22;37937;61.490;23.506;2022-10-30T06:05:23;3.40;99.90
3478;DHT22;37937;61.490;23.506;2022-10-30T06:07:48;3.40;99.90
3478;DHT22;37937;61.490;23.506;2022-10-30T06:10:14;3.30;99.90
3478;DHT22;37937;61.490;23.506;2022-10-30T06:12:40;3.40;99.90
3478;DHT22;37937;61.490;23.506;2022-10-30T06:15:06;3.40;99.90
3478;DHT22;37937;61.490;23.506;2022-10-30T06:17:31;3.30;99.90
3478;DHT22;37937;61.490;23.506;2022-10-30T06:19:57;3.30;99.90
3478;DHT22;37937;61.490;23.506;2022-10-30T06:22:25;3.40;99.90
3478;DHT22;37937;61.490;23.506;2022-10-30T06:24:51;3.30;99.90
3478;DHT22;37937;61.490;23.506;2022-10-30T06:27:16;3.30;99.90
3478;DHT22;37937;61.490;23.506;2022-10-30T06:29:42;3.30;99.90
3478;DHT22;37937;61.490;23.506;2022-10-30T06:32:08;3.30;99.90
3478;DHT22;37937;61.490;23.506;2022-10-30T06:34:33;3.30;99.90
3478;DHT22;37937;61.490;23.506;2022-10-30T06:36:59;3.30;99.90
3478;DHT22;37937;61.490;23.506;2022-10-30T06:39:25;3.30;99.90
3478;DHT22;37937;61.490;23.506;2022-10-30T06:41:51;3.30;99.90
3478;DHT22;37937;61.490;23.506;2022-10-30T06:44:17;3.30;99.90
3478;DHT22;37937;61.490;23.506;2022-10-30T06:46:43;3.30;99.90
3478;DHT22;37937;61.490;23.506;2022-10-30T06:49:08;3.30;99.90
3478;DHT22;37937;61.490;23.506;2022-10-30T06:51:34;3.30;99.90
3478;DHT22;37937;61.490;23.506;2022-10-30T06:54:00;3.40;99.90
3478;DHT22;37937;61.490;23.506;2022-10-30T06:56:25;3.30;99.90
3478;DHT22;37937;61.490;23.506;2022-10-30T06:58:51;3.20;99.90
3478;DHT22;37937;61.490;23.506;2022-10-30T07:01:17;3.30;99.90
3478;DHT22;37937;61.490;23.506;2022-10-30T07:03:42;3.30;99.90
3478;DHT22;37937;61.490;23.506;2022-10-30T07:06:08;3.30;99.90
3478;DHT22;37937;61.490;23.506;2022-10-30T07:08:34;3.30;99.90
3478;DHT22;37937;61.490;23.506;2022-10-30T07:10:59;3.30;99.90
3478;DHT22;37937;61.490;23.506;2022-10-30T07:13:25;3.30;99.90
3478;DHT22;37937;61.490;23.506;2022-10-30T07:15:51;3.30;99.90
3478;DHT22;37937;61.490;23.506;2022-10-30T07:18:16;3.30;99.90
3478;DHT22;37937;61.490;23.506;2022-10-30T07:20:42;3.30;99.90
3478;DHT22;37937;61.490;23.506;2022-10-30T07:23:08;3.30;99.90
3478;DHT22;37937;61.490;23.506;2022-10-30T07:25:33;3.30;99.90
3478;DHT22;37937;61.490;23.506;2022-10-30T07:27:59;3.30;99.90
3478;DHT22;37937;61.490;23.506;2022-10-30T07:30:26;3.30;99.90
3478;DHT22;37937;61.490;23.506;2022-10-30T07:32:56;3.30;99.90
3478;DHT22;37937;61.490;23.506;2022-10-30T07:35:23;3.30;99.90
3478;DHT22;37937;61.490;23.506;2022-10-30T07:37:48;3.30;99.90
3478;DHT22;37937;61.490;23.506;2022-10-30T07:40:14;3.30;99.90
3478;DHT22;37937;61.490;23.506;2022-10-30T07:42:40;3.30;99.90
3478;DHT22;37937;61.490;23.506;2022-10-30T07:45:06;3.30;99.90
3478;DHT22;37937;61.490;23.506;2022-10-30T07:47:31;3.30;99.90
3478;DHT22;37937;61.490;23.506;2022-10-30T07:49:57;3.30;99.90
3478;DHT22;37937;61.490;23.506;2022-10-30T07:52:23;3.30;99.90
3478;DHT22;37937;61.490;23.506;2022-10-30T07:54:49;3.30;99.90
3478;DHT22;37937;61.490;23.506;2022-10-30T07:57:14;3.30;99.90
3478;DHT22;37937;61.490;23.506;2022-10-30T07:59:40;3.30;99.90
3478;DHT22;37937;61.490;23.506;2022-10-30T08:02:07;3.30;99.90
3478;DHT22;37937;61.490;23.506;2022-10-30T08:04:33;3.30;99.90
3478;DHT22;37937;61.490;23.506;2022-10-30T08:06:59;3.30;99.90
3478;DHT22;37937;61.490;23.506;2022-10-30T08:09:24;3.30;99.90
3478;DHT22;37937;61.490;23.506;2022-10-30T08:11:50;3.30;99.90
3478;DHT22;37937;61.490;23.506;2022-10-30T08:14:16;3.30;99.90
3478;DHT22;37937;61.490;23.506;2022-10-30T08:16:41;3.30;99.90
3478;DHT22;37937;61.490;23.506;2022-10-30T08:19:07;3.30;99.90
3478;DHT22;37937;61.490;23.506;2022-10-30T08:21:33;3.30;99.90
3478;DHT22;37937;61.490;23.506;2022-10-30T08:23:58;3.30;99.90
3478;DHT22;37937;61.490;23.506;2022-10-30T08:26:24;3.30;99.90
3478;DHT22;37937;61.490;23.506;2022-10-30T08:28:50;3.30;99.90
3478;DHT22;37937;61.490;23.506;2022-10-30T08:31:15;3.30;99.90
3478;DHT22;37937;61.490;23.506;2022-10-30T08:33:41;3.30;99.90
3478;DHT22;37937;61.490;23.506;2022-10-30T08:36:07;3.30;99.90
3478;DHT22;37937;61.490;23.506;2022-10-30T08:38:33;3.30;99.90
3478;DHT22;37937;61.490;23.506;2022-10-30T08:41:00;3.30;99.90
3478;DHT22;37937;61.490;23.506;2022-10-30T08:43:26;3.40;99.90
3478;DHT22;37937;61.490;23.506;2022-10-30T08:45:51;3.30;99.90
3478;DHT22;37937;61.490;23.506;2022-10-30T08:48:17;3.40;99.90
3478;DHT22;37937;61.490;23.506;2022-10-30T08:50:43;3.40;99.90
3478;DHT22;37937;61.490;23.506;2022-10-30T08:53:09;3.40;99.90
3478;DHT22;37937;61.490;23.506;2022-10-30T08:55:35;3.40;99.90
3478;DHT22;37937;61.490;23.506;2022-10-30T08:58:01;3.40;99.90
3478;DHT22;37937;61.490;23.506;2022-10-30T09:00:27;3.40;99.90
3478;DHT22;37937;61.490;23.506;2022-10-30T09:02:53;3.50;99.90
3478;DHT22;37937;61.490;23.506;2022-10-30T09:05:19;3.50;99.90
3478;DHT22;37937;61.490;23.506;2022-10-30T09:07:44;3.50;99.90
3478;DHT22;37937;61.490;23.506;2022-10-30T09:10:11;3.50;99.90
3478;DHT22;37937;61.490;23.506;2022-10-30T09:12:37;3.60;99.90
3478;DHT22;37937;61.490;23.506;2022-10-30T09:15:03;3.60;99.90
3478;DHT22;37937;61.490;23.506;2022-10-30T09:17:29;3.60;99.90
3478;DHT22;37937;61.490;23.506;2022-10-30T09:19:54;3.60;99.90
3478;DHT22;37937;61.490;23.506;2022-10-30T09:22:20;3.60;99.90
3478;DHT22;37937;61.490;23.506;2022-10-30T09:24:46;3.60;99.90
3478;DHT22;37937;61.490;23.506;2022-10-30T09:27:12;3.60;99.90
3478;DHT22;37937;61.490;23.506;2022-10-30T09:29:37;3.60;99.90
3478;DHT22;37937;61.490;23.506;2022-10-30T09:32:03;3.60;99.90
3478;DHT22;37937;61.490;23.506;2022-10-30T09:34:33;3.60;99.90
3478;DHT22;37937;61.490;23.506;2022-10-30T09:36:58;3.60;99.90
3478;DHT22;37937;61.490;23.506;2022-10-30T09:39:24;3.60;99.90
3478;DHT22;37937;61.490;23.506;2022-10-30T09:52:17;3.70;99.90
3478;DHT22;37937;61.490;23.506;2022-10-30T09:59:59;3.70;99.90
3478;DHT22;37937;61.490;23.506;2022-10-30T10:05:03;3.70;99.90
3478;DHT22;37937;61.490;23.506;2022-10-30T10:07:35;3.70;99.90
3478;DHT22;37937;61.490;23.506;2022-10-30T10:10:03;3.70;99.90
3478;DHT22;37937;61.490;23.506;2022-10-30T10:12:39;3.70;99.90
3478;DHT22;37937;61.490;23.506;2022-10-30T10:15:54;3.70;99.90
3478;DHT22;37937;61.490;23.506;2022-10-30T10:17:53;3.70;99.90
3478;DHT22;37937;61.490;23.506;2022-10-30T10:20:26;3.80;99.90
3478;DHT22;37937;61.490;23.506;2022-10-30T10:22:54;3.70;99.90
3478;DHT22;37937;61.490;23.506;2022-10-30T10:25:21;3.80;99.90
3478;DHT22;37937;61.490;23.506;2022-10-30T10:38:31;3.90;99.90
3478;DHT22;37937;61.490;23.506;2022-10-30T10:51:24;4.00;99.90
3478;DHT22;37937;61.490;23.506;2022-10-30T10:53:52;4.00;99.90
3478;DHT22;37937;61.490;23.506;2022-10-30T10:56:20;4.00;99.90
3478;DHT22;37937;61.490;23.506;2022-10-30T10:58:55;4.00;99.90
3478;DHT22;37937;61.490;23.506;2022-10-30T11:01:26;4.10;99.90
3478;DHT22;37937;61.490;23.506;2022-10-30T11:03:56;4.10;99.90
3478;DHT22;37937;61.490;23.506;2022-10-30T11:06:29;4.10;99.90
3478;DHT22;37937;61.490;23.506;2022-10-30T11:09:15;4.10;99.90
3478;DHT22;37937;61.490;23.506;2022-10-30T11:11:43;4.20;99.90
3478;DHT22;37937;61.490;23.506;2022-10-30T11:14:13;4.20;99.90
3478;DHT22;37937;61.490;23.506;2022-10-30T11:16:47;4.30;99.90
3478;DHT22;37937;61.490;23.506;2022-10-30T11:19:15;4.20;99.90
3478;DHT22;37937;61.490;23.506;2022-10-30T11:21:42;4.20;99.90
3478;DHT22;37937;61.490;23.506;2022-10-30T11:24:26;4.20;99.90
3478;DHT22;37937;61.490;23.506;2022-10-30T11:26:53;4.30;99.90
3478;DHT22;37937;61.490;23.506;2022-10-30T11:29:23;4.40;99.90
3478;DHT22;37937;61.490;23.506;2022-10-30T11:32:10;4.40;99.90
3478;DHT22;37937;61.490;23.506;2022-10-30T11:34:35;4.30;99.90
3478;DHT22;37937;61.490;23.506;2022-10-30T11:37:02;4.30;99.90
3478;DHT22;37937;61.490;23.506;2022-10-30T11:39:29;4.30;99.90
3478;DHT22;37937;61.490;23.506;2022-10-30T11:44:26;4.30;99.90
3478;DHT22;37937;61.490;23.506;2022-10-30T11:46:53;4.40;99.90
3478;DHT22;37937;61.490;23.506;2022-10-30T11:49:53;4.40;99.90
3478;DHT22;37937;61.490;23.506;2022-10-30T11:52:12;4.40;99.90
3478;DHT22;37937;61.490;23.506;2022-10-30T11:54:40;4.40;99.90
3478;DHT22;37937;61.490;23.506;2022-10-30T11:57:51;4.40;99.90
3478;DHT22;37937;61.490;23.506;2022-10-30T11:59:57;4.40;99.90
3478;DHT22;37937;61.490;23.506;2022-10-30T12:02:24;4.40;99.90
3478;DHT22;37937;61.490;23.506;2022-10-30T12:04:54;4.40;99.90
3478;DHT22;37937;61.490;23.506;2022-10-30T12:07:25;4.30;99.90
3478;DHT22;37937;61.490;23.506;2022-10-30T12:09:52;4.40;99.90
3478;DHT22;37937;61.490;23.506;2022-10-30T12:12:22;4.40;99.90
3478;DHT22;37937;61.490;23.506;2022-10-30T12:14:49;4.40;99.90
3478;DHT22;37937;61.490;23.506;2022-10-30T12:17:15;4.40;99.90
3478;DHT22;37937;61.490;23.506;2022-10-30T12:19:48;4.40;99.90
3478;DHT22;37937;61.490;23.506;2022-10-30T12:22:28;4.50;99.90
3478;DHT22;37937;61.490;23.506;2022-10-30T12:24:55;4.40;99.90
3478;DHT22;37937;61.490;23.506;2022-10-30T12:27:21;4.50;99.90
3478;DHT22;37937;61.490;23.506;2022-10-30T12:33:19;4.60;99.90
3478;DHT22;37937;61.490;23.506;2022-10-30T12:37:51;4.60;99.90
3478;DHT22;37937;61.490;23.506;2022-10-30T12:40:19;4.60;99.90
3478;DHT22;37937;61.490;23.506;2022-10-30T12:43:09;4.70;99.90
3478;DHT22;37937;61.490;23.506;2022-10-30T12:45:43;4.70;99.90
3478;DHT22;37937;61.490;23.506;2022-10-30T12:53:05;4.60;99.90
3478;DHT22;37937;61.490;23.506;2022-10-30T12:55:36;4.60;99.90
3478;DHT22;37937;61.490;23.506;2022-10-30T13:00:34;4.50;99.90
3478;DHT22;37937;61.490;23.506;2022-10-30T13:03:13;4.40;99.90
3478;DHT22;37937;61.490;23.506;2022-10-30T13:05:46;4.40;99.90
3478;DHT22;37937;61.490;23.506;2022-10-30T13:08:16;4.40;99.90
3478;DHT22;37937;61.490;23.506;2022-10-30T13:10:48;4.30;99.90
3478;DHT22;37937;61.490;23.506;2022-10-30T13:13:16;4.30;99.90
3478;DHT22;37937;61.490;23.506;2022-10-30T13:16:29;4.30;99.90
3478;DHT22;37937;61.490;23.506;2022-10-30T13:18:29;4.30;99.90
3478;DHT22;37937;61.490;23.506;2022-10-30T13:21:59;4.20;99.90
3478;DHT22;37937;61.490;23.506;2022-10-30T13:24:02;4.30;99.90
3478;DHT22;37937;61.490;23.506;2022-10-30T13:26:32;4.20;99.90
3478;DHT22;37937;61.490;23.506;2022-10-30T13:29:03;4.20;99.90
3478;DHT22;37937;61.490;23.506;2022-10-30T13:47:19;4.00;99.90
3478;DHT22;37937;61.490;23.506;2022-10-30T13:52:33;3.90;99.90
3478;DHT22;37937;61.490;23.506;2022-10-30T14:02:41;3.70;99.90
3478;DHT22;37937;61.490;23.506;2022-10-30T14:05:22;3.70;99.90
3478;DHT22;37937;61.490;23.506;2022-10-30T14:13:02;3.50;99.90
3478;DHT22;37937;61.490;23.506;2022-10-30T14:20:39;3.40;99.90
3478;DHT22;37937;61.490;23.506;2022-10-30T14:23:18;3.40;99.90
3478;DHT22;37937;61.490;23.506;2022-10-30T14:28:26;3.30;99.90
3478;DHT22;37937;61.490;23.506;2022-10-30T14:31:02;3.30;99.90
3478;DHT22;37937;61.490;23.506;2022-10-30T14:36:13;3.20;99.90
3478;DHT22;37937;61.490;23.506;2022-10-30T14:38:39;3.20;99.90
3478;DHT22;37937;61.490;23.506;2022-10-30T14:41:08;3.20;99.90
3478;DHT22;37937;61.490;23.506;2022-10-30T14:43:46;3.10;99.90
3478;DHT22;37937;61.490;23.506;2022-10-30T14:49:08;3.00;99.90
3478;DHT22;37937;61.490;23.506;2022-10-30T14:52:37;3.00;99.90
3478;DHT22;37937;61.490;23.506;2022-10-30T14:54:32;3.00;99.90
3478;DHT22;37937;61.490;23.506;2022-10-30T14:57:01;3.00;99.90
3478;DHT22;37937;61.490;23.506;2022-10-30T14:59:31;3.00;99.90
3478;DHT22;37937;61.490;23.506;2022-10-30T15:04:51;2.90;99.90
3478;DHT22;37937;61.490;23.506;2022-10-30T15:10:07;2.90;99.90
3478;DHT22;37937;61.490;23.506;2022-10-30T15:15:11;2.90;99.90
3478;DHT22;37937;61.490;23.506;2022-10-30T15:17:50;2.80;99.90
3478;DHT22;37937;61.490;23.506;2022-10-30T15:20:24;2.80;99.90
3478;DHT22;37937;61.490;23.506;2022-10-30T15:22:52;2.80;99.90
3478;DHT22;37937;61.490;23.506;2022-10-30T15:25:18;2.70;99.90
3478;DHT22;37937;61.490;23.506;2022-10-30T15:27:45;2.70;99.90
3478;DHT22;37937;61.490;23.506;2022-10-30T15:30:16;2.70;99.90
3478;DHT22;37937;61.490;23.506;2022-10-30T15:32:42;2.70;99.90
3478;DHT22;37937;61.490;23.506;2022-10-30T15:37:39;2.70;99.90
3478;DHT22;37937;61.490;23.506;2022-10-30T15:40:20;2.70;99.90
3478;DHT22;37937;61.490;23.506;2022-10-30T15:42:46;2.70;99.90
3478;DHT22;37937;61.490;23.506;2022-10-30T15:45:17;2.70;99.90
3478;DHT22;37937;61.490;23.506;2022-10-30T15:47:44;2.70;99.90
3478;DHT22;37937;61.490;23.506;2022-10-30T15:50:10;2.70;99.90
3478;DHT22;37937;61.490;23.506;2022-10-30T15:52:36;2.60;99.90
3478;DHT22;37937;61.490;23.506;2022-10-30T15:55:04;2.60;99.90
3478;DHT22;37937;61.490;23.506;2022-10-30T15:57:32;2.60;99.90
3478;DHT22;37937;61.490;23.506;2022-10-30T15:59:59;2.60;99.90
3478;DHT22;37937;61.490;23.506;2022-10-30T16:02:26;2.60;99.90
3478;DHT22;37937;61.490;23.506;2022-10-30T16:04:52;2.50;99.90
3478;DHT22;37937;61.490;23.506;2022-10-30T16:07:19;2.60;99.90
3478;DHT22;37937;61.490;23.506;2022-10-30T16:12:17;2.50;99.90
3478;DHT22;37937;61.490;23.506;2022-10-30T16:14:43;2.50;99.90
3478;DHT22;37937;61.490;23.506;2022-10-30T16:17:09;2.50;99.90
3478;DHT22;37937;61.490;23.506;2022-10-30T16:19:45;2.50;99.90
3478;DHT22;37937;61.490;23.506;2022-10-30T16:22:13;2.50;99.90
3478;DHT22;37937;61.490;23.506;2022-10-30T16:24:39;2.50;99.90
3478;DHT22;37937;61.490;23.506;2022-10-30T16:27:15;2.50;99.90
3478;DHT22;37937;61.490;23.506;2022-10-30T16:29:43;2.50;99.90
3478;DHT22;37937;61.490;23.506;2022-10-30T16:32:13;2.50;99.90
3478;DHT22;37937;61.490;23.506;2022-10-30T16:34:39;2.50;99.90
3478;DHT22;37937;61.490;23.506;2022-10-30T16:37:08;2.60;99.90
3478;DHT22;37937;61.490;23.506;2022-10-30T16:39:35;2.60;99.90
3478;DHT22;37937;61.490;23.506;2022-10-30T16:42:02;2.70;99.90
3478;DHT22;37937;61.490;23.506;2022-10-30T16:44:28;2.60;99.90
3478;DHT22;37937;61.490;23.506;2022-10-30T16:46:55;2.70;99.90
3478;DHT22;37937;61.490;23.506;2022-10-30T16:49:22;2.70;99.90
3478;DHT22;37937;61.490;23.506;2022-10-30T16:51:58;2.70;99.90
3478;DHT22;37937;61.490;23.506;2022-10-30T16:54:31;2.70;99.90
3478;DHT22;37937;61.490;23.506;2022-10-30T16:56:59;2.70;99.90
3478;DHT22;37937;61.490;23.506;2022-10-30T16:59:35;2.80;99.90
3478;DHT22;37937;61.490;23.506;2022-10-30T17:02:03;2.70;99.90
3478;DHT22;37937;61.490;23.506;2022-10-30T17:04:31;2.80;99.90
3478;DHT22;37937;61.490;23.506;2022-10-30T17:07:13;2.80;99.90
3478;DHT22;37937;61.490;23.506;2022-10-30T17:09:41;2.80;99.90
3478;DHT22;37937;61.490;23.506;2022-10-30T17:14:46;2.80;99.90
3478;DHT22;37937;61.490;23.506;2022-10-30T17:17:26;2.90;99.90
3478;DHT22;37937;61.490;23.506;2022-10-30T17:19:56;2.90;99.90
3478;DHT22;37937;61.490;23.506;2022-10-30T17:22:22;2.90;99.90
3478;DHT22;37937;61.490;23.506;2022-10-30T17:24:50;2.90;99.90
3478;DHT22;37937;61.490;23.506;2022-10-30T17:33:38;2.80;99.90
3478;DHT22;37937;61.490;23.506;2022-10-30T17:35:59;2.80;99.90
3478;DHT22;37937;61.490;23.506;2022-10-30T17:38:25;2.80;99.90
3478;DHT22;37937;61.490;23.506;2022-10-30T17:40:51;2.80;99.90
3478;DHT22;37937;61.490;23.506;2022-10-30T17:43:17;2.80;99.90
3478;DHT22;37937;61.490;23.506;2022-10-30T17:45:42;2.70;99.90
3478;DHT22;37937;61.490;23.506;2022-10-30T17:48:15;2.70;99.90
3478;DHT22;37937;61.490;23.506;2022-10-30T17:50:41;2.80;99.90
3478;DHT22;37937;61.490;23.506;2022-10-30T17:53:14;2.70;99.90
3478;DHT22;37937;61.490;23.506;2022-10-30T17:55:41;2.70;99.90
3478;DHT22;37937;61.490;23.506;2022-10-30T17:58:08;2.70;99.90
3478;DHT22;37937;61.490;23.506;2022-10-30T18:00:34;2.80;99.90
3478;DHT22;37937;61.490;23.506;2022-10-30T18:02:59;2.80;99.90
3478;DHT22;37937;61.490;23.506;2022-10-30T18:05:26;2.70;99.90
3478;DHT22;37937;61.490;23.506;2022-10-30T18:07:53;2.70;99.90
3478;DHT22;37937;61.490;23.506;2022-10-30T18:10:18;2.70;99.90
3478;DHT22;37937;61.490;23.506;2022-10-30T18:12:44;2.70;99.90